Record high temperature 42.2°C Record low temperature -14.6°C Record high gust 76.2 km/h Record high average 96.8 km/h Record daily rain 63.7 mm Record low windchill -17.5°C Record high barometer 1046.0 hPa Record low barometer 960.0 hPa
Daily high pressure 993.0 hPa Daily low pressure 987.0 hPa Daily low windchill 1.6°C Daily high heat index 7.2°C Daily high gust speed 54.6 kmh SW Daily high average speed 25.5 kmh SSW

This page is updated from recent data collected by a WMR200 weather station Use the Reload or Refresh facility on your browser to retrieve the latest data.

Status report of weather station: Bienvenue sur la Station Météo de Godarville



Weather report/warning/Metars

Alexandroupoli Airport , Greece (LGAL) 40-51N 025-55E 3M
Jan 20, 2021 - 03:50 AM EST / 2021.01.20 0850 UTC
Wind: Calm:0
Visibility: greater than 7 mile(s):0
Sky conditions: mostly clear
Temperature: 35 F (2 C)
Dew Point: 28 F (-2 C)
Relative Humidity: 74%
Pressure (altimeter): 30.30 in. Hg (1026 hPa)
ob: LGAL 200850Z 00000KT 9999 FEW030 02/M02 Q1026
cycle: 9

Charleroi / Gosselies, Belgium (EBCI) 50-28N 004-27E 192M
Jan 20, 2021 - 03:50 AM EST / 2021.01.20 0850 UTC
Wind: from the S (190 degrees) at 15 MPH (13 KT) gusting to 29 MPH (25 KT):0
Visibility: greater than 7 mile(s):0
Temperature: 42 F (6 C)
Dew Point: 32 F (0 C)
Relative Humidity: 65%
Pressure (altimeter): 29.56 in. Hg (1001 hPa)
ob: EBCI 200850Z 19013G25KT CAVOK 06/M00 Q1001 TEMPO 18015G25KT
cycle: 9

Bruxelles National, Belgium (EBBR) 50-54N 004-32E 58M
Jan 20, 2021 - 03:50 AM EST / 2021.01.20 0850 UTC
Wind: from the SSW (200 degrees) at 18 MPH (16 KT):0
Visibility: greater than 7 mile(s):0
Temperature: 44 F (7 C)
Dew Point: 33 F (1 C)
Relative Humidity: 65%
Pressure (altimeter): 29.53 in. Hg (1000 hPa)
ob: EBBR 200850Z 20016KT CAVOK 07/01 Q1000 TEMPO 21016G28KT
cycle: 9

Koksijde, Belgium (EBFN) 51-05N 002-39E 9M
Jan 20, 2021 - 03:55 AM EST / 2021.01.20 0855 UTC
Wind: from the SSW (200 degrees) at 17 MPH (15 KT):0
Visibility: greater than 7 mile(s):0
Sky conditions: mostly cloudy
Temperature: 46 F (8 C)
Dew Point: 41 F (5 C)
Relative Humidity: 81%
Pressure (altimeter): 29.41 in. Hg (0996 hPa)
ob: EBFN 200855Z 20015KT 9999 FEW024 SCT032 BKN085 08/05 Q0996 BLU BLU TEMPO WHT
cycle: 9

Poznan, Poland (EPPO) 52-25N 016-50E 92M
Jan 20, 2021 - 04:00 AM EST / 2021.01.20 0900 UTC
Wind: from the S (190 degrees) at 7 MPH (6 KT):0
Visibility: greater than 7 mile(s):0
Temperature: 37 F (3 C)
Dew Point: 35 F (2 C)
Relative Humidity: 93%
Pressure (altimeter): 29.68 in. Hg (1005 hPa)
ob: EPPO 200900Z 19006KT CAVOK 03/02 Q1005 R10/29//95 
cycle: 9



Coucher du Soleil:
17:13:58

Lever de Lune:
11:41:32 19/01/21

Coucher de Lune:
00:16:48 20/01/21

Premier Quartier 20 janvier 2021
Pleine Lune 28 janvier 2021
Dernier Quartier 4 février 2021
Nouvelle Lune 11 février 2021
Âge de lune : 6 jours,13 heures,38 minutes,42%
Les heures du jour possible étaient aujourd’hui 08:40



The data is logged at two minute intervals, but there is data recorded every minute.

Use the RELOAD facility on your browser to retrieve the latest data.

Click here for a daily update of the averages/extremes to date for the month
Created by "Weather Display" software version 10.37P at this start time/date 23:15:36 17/01/2021